ETD7JD OPIS-OMAA
Flight info
| Callsign | ETD7JD |
|---|---|
| Flight time | 2h 52m |
| Altitude | 34000 |
| Route | KALMI J139 HANGU G325 PG G665 ASVIB N312 MOBET M324 PATAT L519 IVOXI Q311 EMERU |
| Aircraft | A321/M-SDE3FGHIRWY/LB1 |
Departure
| Time | 2026-05-08 15:31 |
|---|---|
| Airport | Islamabad International Airport (OPIS) |
Arrival
| Time | 2026-05-08 18:24 |
|---|---|
| Airport | Zayed International Airport (OMAA) |
| Time | Latitude | Longitude | Altitude | Speed | Heading |
|---|---|---|---|---|---|
| 2026-05-08 14:47 | 33.55433 | 72.83444 | 1772 ft | 0 kts | 10° |
| 2026-05-08 14:53 | 33.55432 | 72.83444 | 1770 ft | 0 kts | 10° |
| 2026-05-08 15:16 | 33.55416 | 72.83440 | 1771 ft | 3 kts | 13° |
| 2026-05-08 15:16 | 33.55393 | 72.83433 | 1771 ft | 3 kts | 19° |
| 2026-05-08 15:17 | 33.55371 | 72.83422 | 1770 ft | 3 kts | 32° |
| 2026-05-08 15:17 | 33.55354 | 72.83405 | 1770 ft | 3 kts | 65° |
| 2026-05-08 15:17 | 33.55350 | 72.83390 | 1771 ft | 0 kts | 100° |
| 2026-05-08 15:20 | 33.55348 | 72.83404 | 1770 ft | 4 kts | 100° |
| 2026-05-08 15:20 | 33.55343 | 72.83440 | 1771 ft | 5 kts | 100° |
| 2026-05-08 15:20 | 33.55336 | 72.83482 | 1770 ft | 5 kts | 100° |
| 2026-05-08 15:20 | 33.55324 | 72.83527 | 1772 ft | 6 kts | 118° |
| 2026-05-08 15:21 | 33.55289 | 72.83555 | 1771 ft | 6 kts | 169° |
| 2026-05-08 15:21 | 33.55242 | 72.83546 | 1773 ft | 7 kts | 191° |
| 2026-05-08 15:21 | 33.55190 | 72.83533 | 1773 ft | 8 kts | 193° |
| 2026-05-08 15:21 | 33.55131 | 72.83517 | 1770 ft | 9 kts | 192° |
| 2026-05-08 15:22 | 33.55065 | 72.83508 | 1770 ft | 10 kts | 165° |
| 2026-05-08 15:22 | 33.55039 | 72.83576 | 1768 ft | 10 kts | 94° |
| 2026-05-08 15:22 | 33.55032 | 72.83659 | 1769 ft | 10 kts | 97° |
| 2026-05-08 15:22 | 33.55023 | 72.83745 | 1772 ft | 11 kts | 97° |
| 2026-05-08 15:23 | 33.55013 | 72.83837 | 1768 ft | 11 kts | 98° |
| 2026-05-08 15:23 | 33.54997 | 72.83932 | 1768 ft | 12 kts | 102° |
| 2026-05-08 15:23 | 33.54978 | 72.84029 | 1771 ft | 11 kts | 103° |
| 2026-05-08 15:23 | 33.54960 | 72.84087 | 1771 ft | 5 kts | 131° |
| 2026-05-08 15:24 | 33.54954 | 72.84074 | 1769 ft | 3 kts | 282° |
| 2026-05-08 15:24 | 33.54962 | 72.84032 | 1771 ft | 8 kts | 283° |
| 2026-05-08 15:24 | 33.54972 | 72.83980 | 1768 ft | 12 kts | 283° |
| 2026-05-08 15:24 | 33.54995 | 72.83864 | 1772 ft | 17 kts | 283° |
| 2026-05-08 15:25 | 33.55032 | 72.83648 | 1770 ft | 22 kts | 281° |
| 2026-05-08 15:25 | 33.55060 | 72.83469 | 1770 ft | 22 kts | 281° |
| 2026-05-08 15:25 | 33.55088 | 72.83289 | 1768 ft | 22 kts | 279° |
| 2026-05-08 15:25 | 33.55113 | 72.83106 | 1769 ft | 22 kts | 279° |
| 2026-05-08 15:26 | 33.55130 | 72.82981 | 1768 ft | 22 kts | 279° |
| 2026-05-08 15:26 | 33.55157 | 72.82798 | 1770 ft | 22 kts | 280° |
| 2026-05-08 15:26 | 33.55185 | 72.82612 | 1770 ft | 23 kts | 279° |
| 2026-05-08 15:26 | 33.55211 | 72.82427 | 1772 ft | 23 kts | 280° |
| 2026-05-08 15:27 | 33.55240 | 72.82241 | 1770 ft | 23 kts | 281° |
| 2026-05-08 15:27 | 33.55271 | 72.82053 | 1769 ft | 23 kts | 281° |
| 2026-05-08 15:27 | 33.55300 | 72.81864 | 1772 ft | 23 kts | 281° |
| 2026-05-08 15:27 | 33.55331 | 72.81673 | 1767 ft | 23 kts | 281° |
| 2026-05-08 15:28 | 33.55360 | 72.81482 | 1769 ft | 23 kts | 279° |
| 2026-05-08 15:28 | 33.55387 | 72.81289 | 1768 ft | 23 kts | 279° |
| 2026-05-08 15:28 | 33.55417 | 72.81101 | 1768 ft | 23 kts | 281° |
| 2026-05-08 15:28 | 33.55447 | 72.80911 | 1767 ft | 23 kts | 280° |
| 2026-05-08 15:29 | 33.55472 | 72.80760 | 1769 ft | 15 kts | 279° |
| 2026-05-08 15:29 | 33.55406 | 72.80684 | 1767 ft | 16 kts | 186° |
| 2026-05-08 15:29 | 33.55284 | 72.80667 | 1749 ft | 17 kts | 189° |
| 2026-05-08 15:29 | 33.55161 | 72.80643 | 1754 ft | 19 kts | 189° |
| 2026-05-08 15:30 | 33.55093 | 72.80706 | 1747 ft | 12 kts | 98° |
| 2026-05-08 15:30 | 33.55091 | 72.80719 | 1749 ft | 0 kts | 99° |
| 2026-05-08 15:30 | 33.55091 | 72.80722 | 1749 ft | 2 kts | 99° |
| 2026-05-08 15:30 | 33.55052 | 72.80992 | 1752 ft | 67 kts | 100° |
| 2026-05-08 15:31 | 33.54925 | 72.81790 | 1762 ft | 126 kts | 100° |
| 2026-05-08 15:31 | 33.54733 | 72.83026 | 1766 ft | 173 kts | 100° |
| 2026-05-08 15:31 | 33.54526 | 72.84499 | 2225 ft | 181 kts | 99° |
| 2026-05-08 15:31 | 33.54317 | 72.85977 | 2897 ft | 178 kts | 101° |
| 2026-05-08 15:32 | 33.54093 | 72.87428 | 3552 ft | 176 kts | 102° |
| 2026-05-08 15:32 | 33.53875 | 72.88834 | 4043 ft | 171 kts | 102° |
| 2026-05-08 15:32 | 33.53637 | 72.90283 | 4277 ft | 181 kts | 104° |
| 2026-05-08 15:32 | 33.53034 | 72.91593 | 4558 ft | 186 kts | 145° |
| 2026-05-08 15:33 | 33.51798 | 72.92002 | 4798 ft | 194 kts | 187° |
| 2026-05-08 15:33 | 33.50445 | 72.91601 | 4940 ft | 209 kts | 196° |
| 2026-05-08 15:33 | 33.48988 | 72.91116 | 5061 ft | 225 kts | 196° |
| 2026-05-08 15:33 | 33.47428 | 72.90606 | 5181 ft | 241 kts | 196° |
| 2026-05-08 15:34 | 33.45735 | 72.90058 | 5277 ft | 263 kts | 196° |
| 2026-05-08 15:34 | 33.43905 | 72.89469 | 5547 ft | 278 kts | 196° |
| 2026-05-08 15:34 | 33.42021 | 72.88868 | 6108 ft | 283 kts | 196° |
| 2026-05-08 15:34 | 33.40108 | 72.88262 | 6687 ft | 286 kts | 198° |
| 2026-05-08 15:35 | 33.38347 | 72.87245 | 7189 ft | 287 kts | 220° |
| 2026-05-08 15:35 | 33.37046 | 72.85455 | 7699 ft | 288 kts | 244° |
| 2026-05-08 15:35 | 33.36457 | 72.83161 | 8217 ft | 287 kts | 268° |
| 2026-05-08 15:35 | 33.36672 | 72.80804 | 8724 ft | 287 kts | 288° |
| 2026-05-08 15:36 | 33.37214 | 72.78524 | 9248 ft | 290 kts | 288° |
| 2026-05-08 15:36 | 33.37769 | 72.76194 | 9799 ft | 293 kts | 288° |
| 2026-05-08 15:36 | 33.38332 | 72.73828 | 10225 ft | 300 kts | 288° |
| 2026-05-08 15:36 | 33.38927 | 72.71323 | 10357 ft | 318 kts | 288° |
| 2026-05-08 15:37 | 33.39537 | 72.68742 | 10474 ft | 335 kts | 288° |
| 2026-05-08 15:37 | 33.40180 | 72.65997 | 10587 ft | 351 kts | 288° |
| 2026-05-08 15:37 | 33.40850 | 72.63124 | 10733 ft | 365 kts | 288° |
| 2026-05-08 15:37 | 33.41536 | 72.60173 | 11103 ft | 370 kts | 288° |
| 2026-05-08 15:38 | 33.42229 | 72.57195 | 11546 ft | 374 kts | 288° |
| 2026-05-08 15:38 | 33.42929 | 72.54186 | 12017 ft | 377 kts | 288° |
| 2026-05-08 15:38 | 33.43634 | 72.51156 | 12486 ft | 379 kts | 288° |
| 2026-05-08 15:38 | 33.44346 | 72.48101 | 12968 ft | 382 kts | 288° |
| 2026-05-08 15:39 | 33.45065 | 72.45028 | 13455 ft | 385 kts | 288° |
| 2026-05-08 15:39 | 33.45788 | 72.41931 | 13904 ft | 388 kts | 288° |
| 2026-05-08 15:39 | 33.46511 | 72.38811 | 14330 ft | 390 kts | 288° |
| 2026-05-08 15:39 | 33.47234 | 72.35666 | 14788 ft | 392 kts | 288° |
| 2026-05-08 15:40 | 33.47956 | 72.32508 | 15258 ft | 395 kts | 288° |
| 2026-05-08 15:40 | 33.48688 | 72.29332 | 15729 ft | 397 kts | 288° |
| 2026-05-08 15:40 | 33.49426 | 72.26137 | 16204 ft | 399 kts | 288° |
| 2026-05-08 15:40 | 33.50170 | 72.22924 | 16675 ft | 401 kts | 288° |
| 2026-05-08 15:41 | 33.50916 | 72.19693 | 17174 ft | 403 kts | 288° |
| 2026-05-08 15:41 | 33.51662 | 72.16446 | 17656 ft | 406 kts | 288° |
| 2026-05-08 15:41 | 33.52411 | 72.13178 | 18148 ft | 408 kts | 288° |
| 2026-05-08 15:41 | 33.53152 | 72.09935 | 18572 ft | 410 kts | 288° |
| 2026-05-08 15:42 | 33.53906 | 72.06633 | 19003 ft | 412 kts | 288° |
| 2026-05-08 15:42 | 33.54527 | 72.03268 | 19422 ft | 416 kts | 279° |
| 2026-05-08 15:42 | 33.54672 | 71.99791 | 19839 ft | 421 kts | 270° |
| 2026-05-08 15:42 | 33.54468 | 71.96280 | 20253 ft | 423 kts | 268° |
| 2026-05-08 15:43 | 33.54253 | 71.92752 | 20663 ft | 425 kts | 268° |
| 2026-05-08 15:43 | 33.54040 | 71.89212 | 21058 ft | 427 kts | 269° |
| 2026-05-08 15:43 | 33.53831 | 71.85656 | 21444 ft | 429 kts | 269° |
| 2026-05-08 15:43 | 33.53623 | 71.82080 | 21838 ft | 431 kts | 269° |
| 2026-05-08 15:44 | 33.53414 | 71.78492 | 22230 ft | 433 kts | 269° |
| 2026-05-08 15:44 | 33.53200 | 71.74886 | 22612 ft | 435 kts | 269° |
| 2026-05-08 15:44 | 33.52981 | 71.71270 | 22991 ft | 437 kts | 269° |
| 2026-05-08 15:44 | 33.52761 | 71.67628 | 23342 ft | 439 kts | 269° |
| 2026-05-08 15:45 | 33.52541 | 71.63975 | 23669 ft | 441 kts | 269° |
| 2026-05-08 15:45 | 33.52321 | 71.60303 | 23974 ft | 442 kts | 269° |
| 2026-05-08 15:45 | 33.52098 | 71.56623 | 24286 ft | 444 kts | 269° |
| 2026-05-08 15:45 | 33.51871 | 71.52919 | 24562 ft | 447 kts | 270° |
| 2026-05-08 15:46 | 33.51640 | 71.49192 | 24836 ft | 449 kts | 270° |
| 2026-05-08 15:46 | 33.51412 | 71.45501 | 25124 ft | 451 kts | 270° |
| 2026-05-08 15:46 | 33.51183 | 71.41748 | 25413 ft | 453 kts | 270° |
| 2026-05-08 15:46 | 33.50952 | 71.37976 | 25700 ft | 455 kts | 271° |
| 2026-05-08 15:47 | 33.50720 | 71.34191 | 25970 ft | 457 kts | 271° |
| 2026-05-08 15:47 | 33.50484 | 71.30386 | 26233 ft | 458 kts | 271° |
| 2026-05-08 15:47 | 33.50246 | 71.26574 | 26515 ft | 460 kts | 271° |
| 2026-05-08 15:47 | 33.50004 | 71.22741 | 26771 ft | 462 kts | 271° |
| 2026-05-08 15:48 | 33.49514 | 71.15042 | 27300 ft | 465 kts | 271° |
| 2026-05-08 15:48 | 33.49264 | 71.11171 | 27590 ft | 467 kts | 271° |
| 2026-05-08 15:48 | 33.48728 | 71.07291 | 27862 ft | 478 kts | 260° |
| 2026-05-08 15:49 | 33.47556 | 71.03524 | 28115 ft | 489 kts | 249° |
| 2026-05-08 15:49 | 33.45743 | 71.00037 | 28501 ft | 498 kts | 237° |
| 2026-05-08 15:49 | 33.43365 | 70.96989 | 28841 ft | 506 kts | 225° |
| 2026-05-08 15:49 | 33.40497 | 70.94503 | 29168 ft | 512 kts | 216° |
| 2026-05-08 15:50 | 33.37472 | 70.92239 | 29456 ft | 514 kts | 216° |
| 2026-05-08 15:50 | 33.34438 | 70.89981 | 29816 ft | 514 kts | 216° |
| 2026-05-08 15:50 | 33.31402 | 70.87731 | 30128 ft | 513 kts | 216° |
| 2026-05-08 15:50 | 33.28368 | 70.85481 | 30423 ft | 513 kts | 216° |
| 2026-05-08 15:51 | 33.25343 | 70.83238 | 30757 ft | 511 kts | 216° |
| 2026-05-08 15:51 | 33.22334 | 70.81007 | 31075 ft | 509 kts | 217° |
| 2026-05-08 15:51 | 33.19337 | 70.78781 | 31425 ft | 506 kts | 217° |
| 2026-05-08 15:51 | 33.16358 | 70.76565 | 31780 ft | 503 kts | 217° |
| 2026-05-08 15:52 | 33.13393 | 70.74361 | 32155 ft | 500 kts | 217° |
| 2026-05-08 15:52 | 33.10442 | 70.72176 | 32497 ft | 498 kts | 218° |
| 2026-05-08 15:52 | 33.07505 | 70.70006 | 32830 ft | 496 kts | 218° |
| 2026-05-08 15:52 | 33.04578 | 70.67844 | 33159 ft | 494 kts | 218° |
| 2026-05-08 15:53 | 33.01711 | 70.65721 | 33498 ft | 491 kts | 218° |
| 2026-05-08 15:53 | 32.98814 | 70.63576 | 33829 ft | 489 kts | 218° |
| 2026-05-08 15:53 | 32.95934 | 70.61445 | 33941 ft | 488 kts | 218° |
| 2026-05-08 15:53 | 32.93053 | 70.59313 | 33812 ft | 486 kts | 218° |
| 2026-05-08 15:54 | 32.90186 | 70.57166 | 33874 ft | 486 kts | 219° |
| 2026-05-08 15:54 | 32.84506 | 70.52801 | 33848 ft | 486 kts | 220° |
| 2026-05-08 15:55 | 32.78838 | 70.48418 | 33857 ft | 486 kts | 220° |
| 2026-05-08 15:55 | 32.70305 | 70.41890 | 33874 ft | 486 kts | 220° |
| 2026-05-08 15:56 | 32.64607 | 70.37558 | 33881 ft | 487 kts | 220° |
| 2026-05-08 15:56 | 32.58828 | 70.33332 | 33907 ft | 489 kts | 218° |
| 2026-05-08 15:57 | 32.52931 | 70.29290 | 33903 ft | 490 kts | 217° |
| 2026-05-08 15:57 | 32.47011 | 70.25268 | 33895 ft | 490 kts | 217° |
| 2026-05-08 15:58 | 32.41161 | 70.21228 | 33898 ft | 490 kts | 218° |
| 2026-05-08 15:58 | 32.35300 | 70.17140 | 33918 ft | 487 kts | 218° |
| 2026-05-08 15:59 | 32.29529 | 70.12980 | 33921 ft | 485 kts | 219° |
| 2026-05-08 15:59 | 32.23803 | 70.08798 | 33902 ft | 483 kts | 219° |
| 2026-05-08 16:00 | 32.18079 | 70.04647 | 33936 ft | 483 kts | 219° |
| 2026-05-08 16:00 | 32.12340 | 70.00532 | 33936 ft | 483 kts | 219° |
| 2026-05-08 16:01 | 32.06589 | 69.96429 | 33935 ft | 483 kts | 219° |
| 2026-05-08 16:01 | 32.00855 | 69.92322 | 33939 ft | 482 kts | 219° |
| 2026-05-08 16:02 | 31.95120 | 69.88206 | 33940 ft | 482 kts | 219° |
| 2026-05-08 16:02 | 31.89383 | 69.84110 | 33928 ft | 482 kts | 218° |
| 2026-05-08 16:03 | 31.83643 | 69.80025 | 33938 ft | 482 kts | 218° |
| 2026-05-08 16:03 | 31.77908 | 69.75952 | 33960 ft | 481 kts | 219° |
| 2026-05-08 16:04 | 31.72224 | 69.71900 | 33950 ft | 481 kts | 219° |
| 2026-05-08 16:04 | 31.66456 | 69.67795 | 33965 ft | 481 kts | 219° |
| 2026-05-08 16:05 | 31.60763 | 69.63755 | 33971 ft | 481 kts | 219° |
| 2026-05-08 16:05 | 31.55029 | 69.59698 | 33979 ft | 481 kts | 218° |
| 2026-05-08 16:06 | 31.49290 | 69.55650 | 33980 ft | 481 kts | 218° |
| 2026-05-08 16:06 | 31.43551 | 69.51601 | 33957 ft | 482 kts | 218° |
| 2026-05-08 16:07 | 31.37799 | 69.47534 | 33951 ft | 482 kts | 221° |
| 2026-05-08 16:07 | 31.32861 | 69.42505 | 33958 ft | 465 kts | 236° |
| 2026-05-08 16:08 | 31.28494 | 69.36912 | 33959 ft | 466 kts | 236° |
| 2026-05-08 16:08 | 31.24102 | 69.31332 | 33959 ft | 467 kts | 235° |
| 2026-05-08 16:09 | 31.20445 | 69.26694 | 33968 ft | 467 kts | 235° |
| 2026-05-08 16:09 | 31.15298 | 69.20170 | 33965 ft | 467 kts | 236° |
| 2026-05-08 16:10 | 31.10910 | 69.14604 | 33966 ft | 466 kts | 236° |
| 2026-05-08 16:10 | 31.06523 | 69.09039 | 33976 ft | 466 kts | 236° |
| 2026-05-08 16:11 | 31.02159 | 69.03525 | 33975 ft | 465 kts | 236° |
| 2026-05-08 16:11 | 30.97770 | 68.97989 | 33967 ft | 465 kts | 236° |
| 2026-05-08 16:12 | 30.93357 | 68.92428 | 33942 ft | 464 kts | 236° |
| 2026-05-08 16:12 | 30.88996 | 68.86943 | 33961 ft | 465 kts | 236° |
| 2026-05-08 16:13 | 30.84611 | 68.81427 | 33950 ft | 463 kts | 235° |
| 2026-05-08 16:13 | 30.80236 | 68.75934 | 33928 ft | 462 kts | 235° |
| 2026-05-08 16:14 | 30.75861 | 68.70465 | 33933 ft | 461 kts | 235° |
| 2026-05-08 16:14 | 30.71494 | 68.65005 | 33933 ft | 461 kts | 235° |
| 2026-05-08 16:15 | 30.67136 | 68.59548 | 33940 ft | 460 kts | 235° |
| 2026-05-08 16:15 | 30.62775 | 68.54101 | 33940 ft | 460 kts | 235° |
| 2026-05-08 16:16 | 30.58413 | 68.48674 | 33925 ft | 460 kts | 234° |
| 2026-05-08 16:16 | 30.54050 | 68.43244 | 33945 ft | 460 kts | 234° |
| 2026-05-08 16:17 | 30.50420 | 68.38727 | 33949 ft | 460 kts | 234° |
| 2026-05-08 16:17 | 30.46051 | 68.33303 | 33937 ft | 460 kts | 234° |
| 2026-05-08 16:18 | 30.41680 | 68.27884 | 33958 ft | 461 kts | 234° |
| 2026-05-08 16:18 | 30.37298 | 68.22467 | 33960 ft | 461 kts | 234° |
| 2026-05-08 16:19 | 30.32906 | 68.17044 | 33966 ft | 461 kts | 234° |
| 2026-05-08 16:19 | 30.28517 | 68.11633 | 33974 ft | 461 kts | 234° |
| 2026-05-08 16:20 | 30.24132 | 68.06222 | 33956 ft | 461 kts | 234° |
| 2026-05-08 16:20 | 30.19747 | 68.00811 | 33955 ft | 461 kts | 234° |
| 2026-05-08 16:21 | 30.15357 | 67.95413 | 33960 ft | 462 kts | 234° |
| 2026-05-08 16:21 | 30.10950 | 67.90018 | 33916 ft | 462 kts | 234° |
| 2026-05-08 16:22 | 30.06539 | 67.84602 | 33918 ft | 462 kts | 234° |
| 2026-05-08 16:22 | 30.02150 | 67.79171 | 33913 ft | 462 kts | 235° |
| 2026-05-08 16:23 | 29.97797 | 67.73773 | 33871 ft | 462 kts | 235° |
| 2026-05-08 16:23 | 29.93411 | 67.68350 | 33871 ft | 462 kts | 234° |
| 2026-05-08 16:24 | 29.89023 | 67.62936 | 33876 ft | 463 kts | 234° |
| 2026-05-08 16:24 | 29.84624 | 67.57520 | 33847 ft | 463 kts | 234° |
| 2026-05-08 16:25 | 29.80218 | 67.52105 | 33844 ft | 463 kts | 234° |
| 2026-05-08 16:25 | 29.75809 | 67.46697 | 33855 ft | 463 kts | 234° |
| 2026-05-08 16:26 | 29.71399 | 67.41286 | 33844 ft | 463 kts | 234° |
| 2026-05-08 16:26 | 29.67007 | 67.35868 | 33882 ft | 464 kts | 234° |
| 2026-05-08 16:27 | 29.62605 | 67.30443 | 33884 ft | 464 kts | 234° |
| 2026-05-08 16:27 | 29.58224 | 67.25063 | 33911 ft | 464 kts | 234° |
| 2026-05-08 16:28 | 29.53804 | 67.19655 | 33909 ft | 464 kts | 234° |
| 2026-05-08 16:28 | 29.49388 | 67.14257 | 33952 ft | 464 kts | 234° |
| 2026-05-08 16:29 | 29.44967 | 67.08854 | 33946 ft | 464 kts | 234° |
| 2026-05-08 16:29 | 29.40549 | 67.03454 | 33948 ft | 464 kts | 234° |
| 2026-05-08 16:30 | 29.36126 | 66.98061 | 33974 ft | 464 kts | 234° |
| 2026-05-08 16:30 | 29.31697 | 66.92675 | 33976 ft | 464 kts | 234° |
| 2026-05-08 16:31 | 29.27262 | 66.87289 | 33987 ft | 465 kts | 234° |
| 2026-05-08 16:31 | 29.22827 | 66.81909 | 34004 ft | 465 kts | 234° |
| 2026-05-08 16:32 | 29.18389 | 66.76534 | 33995 ft | 465 kts | 234° |
| 2026-05-08 16:32 | 29.13948 | 66.71162 | 34018 ft | 464 kts | 234° |
| 2026-05-08 16:33 | 29.09506 | 66.65796 | 34016 ft | 464 kts | 234° |
| 2026-05-08 16:33 | 29.05068 | 66.60441 | 34021 ft | 464 kts | 234° |
| 2026-05-08 16:34 | 29.00630 | 66.55079 | 34012 ft | 464 kts | 234° |
| 2026-05-08 16:34 | 28.96236 | 66.49756 | 34002 ft | 463 kts | 234° |
| 2026-05-08 16:35 | 28.91819 | 66.44406 | 34004 ft | 463 kts | 234° |
| 2026-05-08 16:35 | 28.87401 | 66.39069 | 34007 ft | 462 kts | 234° |
| 2026-05-08 16:36 | 28.82976 | 66.33739 | 33982 ft | 462 kts | 233° |
| 2026-05-08 16:36 | 28.78554 | 66.28425 | 33975 ft | 462 kts | 233° |
| 2026-05-08 16:37 | 28.74134 | 66.23113 | 33949 ft | 461 kts | 233° |
| 2026-05-08 16:37 | 28.69724 | 66.17811 | 33968 ft | 460 kts | 233° |
| 2026-05-08 16:38 | 28.65325 | 66.12529 | 33973 ft | 460 kts | 233° |
| 2026-05-08 16:38 | 28.60913 | 66.07259 | 33955 ft | 460 kts | 233° |
| 2026-05-08 16:39 | 28.56506 | 66.01994 | 33955 ft | 459 kts | 233° |
| 2026-05-08 16:39 | 28.52103 | 65.96737 | 33926 ft | 458 kts | 233° |
| 2026-05-08 16:40 | 28.47712 | 65.91488 | 33922 ft | 458 kts | 232° |
| 2026-05-08 16:40 | 28.43353 | 65.86287 | 33881 ft | 457 kts | 232° |
| 2026-05-08 16:41 | 28.38937 | 65.81030 | 33880 ft | 457 kts | 232° |
| 2026-05-08 16:42 | 28.32382 | 65.73244 | 33861 ft | 456 kts | 232° |
| 2026-05-08 16:42 | 28.27987 | 65.68042 | 33862 ft | 456 kts | 232° |
| 2026-05-08 16:43 | 28.23601 | 65.62847 | 33862 ft | 456 kts | 232° |
| 2026-05-08 16:43 | 28.19217 | 65.57666 | 33843 ft | 456 kts | 232° |
| 2026-05-08 16:44 | 28.14829 | 65.52489 | 33843 ft | 455 kts | 232° |
| 2026-05-08 16:44 | 28.10444 | 65.47312 | 33827 ft | 455 kts | 232° |
| 2026-05-08 16:45 | 28.06067 | 65.42142 | 33844 ft | 455 kts | 231° |
| 2026-05-08 16:45 | 28.01686 | 65.36990 | 33852 ft | 454 kts | 231° |
| 2026-05-08 16:46 | 27.97304 | 65.31838 | 33830 ft | 454 kts | 231° |
| 2026-05-08 16:46 | 27.92921 | 65.26697 | 33861 ft | 454 kts | 231° |
| 2026-05-08 16:47 | 27.88540 | 65.21563 | 33840 ft | 453 kts | 231° |
| 2026-05-08 16:47 | 27.84158 | 65.16442 | 33828 ft | 453 kts | 231° |
| 2026-05-08 16:48 | 27.79782 | 65.11319 | 33862 ft | 453 kts | 231° |
| 2026-05-08 16:48 | 27.75405 | 65.06199 | 33842 ft | 453 kts | 231° |
| 2026-05-08 16:49 | 27.71035 | 65.01094 | 33843 ft | 452 kts | 231° |
| 2026-05-08 16:49 | 27.66654 | 64.95996 | 33845 ft | 452 kts | 230° |
| 2026-05-08 16:50 | 27.62280 | 64.90909 | 33856 ft | 451 kts | 230° |
| 2026-05-08 16:50 | 27.57907 | 64.85827 | 33860 ft | 451 kts | 230° |
| 2026-05-08 16:51 | 27.53566 | 64.80786 | 33861 ft | 451 kts | 230° |
| 2026-05-08 16:51 | 27.49204 | 64.75717 | 33891 ft | 451 kts | 230° |
| 2026-05-08 16:52 | 27.44836 | 64.70651 | 33881 ft | 450 kts | 230° |
| 2026-05-08 16:52 | 27.40465 | 64.65598 | 33879 ft | 450 kts | 230° |
| 2026-05-08 16:53 | 27.33905 | 64.58028 | 33882 ft | 450 kts | 230° |
| 2026-05-08 16:53 | 27.29535 | 64.52993 | 33889 ft | 450 kts | 230° |
| 2026-05-08 16:54 | 27.25171 | 64.47960 | 33877 ft | 449 kts | 230° |
| 2026-05-08 16:54 | 27.20811 | 64.42941 | 33888 ft | 449 kts | 230° |
| 2026-05-08 16:55 | 27.16446 | 64.37922 | 33888 ft | 449 kts | 229° |
| 2026-05-08 16:55 | 27.12073 | 64.32912 | 33877 ft | 449 kts | 229° |
| 2026-05-08 16:56 | 27.07698 | 64.27905 | 33884 ft | 449 kts | 229° |
| 2026-05-08 16:56 | 27.03326 | 64.22891 | 33873 ft | 449 kts | 229° |
| 2026-05-08 16:57 | 26.98940 | 64.17879 | 33852 ft | 451 kts | 229° |
| 2026-05-08 16:57 | 26.94542 | 64.12854 | 33854 ft | 452 kts | 229° |
| 2026-05-08 16:58 | 26.90125 | 64.07833 | 33850 ft | 453 kts | 228° |
| 2026-05-08 16:58 | 26.85677 | 64.02831 | 33859 ft | 453 kts | 228° |
| 2026-05-08 16:59 | 26.81233 | 63.97829 | 33853 ft | 454 kts | 228° |
| 2026-05-08 16:59 | 26.76808 | 63.92847 | 33859 ft | 454 kts | 228° |
| 2026-05-08 17:00 | 26.72346 | 63.87834 | 33866 ft | 455 kts | 228° |
| 2026-05-08 17:00 | 26.67878 | 63.82825 | 33854 ft | 455 kts | 228° |
| 2026-05-08 17:01 | 26.63428 | 63.77817 | 33867 ft | 454 kts | 228° |
| 2026-05-08 17:01 | 26.58968 | 63.72810 | 33871 ft | 454 kts | 228° |
| 2026-05-08 17:02 | 26.54512 | 63.67816 | 33869 ft | 453 kts | 227° |
| 2026-05-08 17:02 | 26.50056 | 63.62831 | 33868 ft | 453 kts | 227° |
| 2026-05-08 17:03 | 26.45596 | 63.57848 | 33870 ft | 453 kts | 227° |
| 2026-05-08 17:03 | 26.41136 | 63.52869 | 33871 ft | 453 kts | 227° |
| 2026-05-08 17:04 | 26.36680 | 63.47903 | 33868 ft | 453 kts | 227° |
| 2026-05-08 17:04 | 26.32224 | 63.42935 | 33855 ft | 453 kts | 227° |
| 2026-05-08 17:05 | 26.27767 | 63.37974 | 33858 ft | 453 kts | 227° |
| 2026-05-08 17:05 | 26.23337 | 63.33046 | 33854 ft | 453 kts | 227° |
| 2026-05-08 17:06 | 26.18873 | 63.28092 | 33856 ft | 453 kts | 227° |
| 2026-05-08 17:06 | 26.14404 | 63.23145 | 33855 ft | 453 kts | 227° |
| 2026-05-08 17:07 | 26.09934 | 63.18207 | 33850 ft | 453 kts | 227° |
| 2026-05-08 17:07 | 26.05461 | 63.13268 | 33851 ft | 453 kts | 227° |
| 2026-05-08 17:08 | 26.00988 | 63.08325 | 33853 ft | 453 kts | 226° |
| 2026-05-08 17:08 | 25.96528 | 63.03381 | 33837 ft | 453 kts | 226° |
| 2026-05-08 17:09 | 25.92073 | 62.98443 | 33832 ft | 452 kts | 226° |
| 2026-05-08 17:09 | 25.88368 | 62.94351 | 33835 ft | 452 kts | 226° |
| 2026-05-08 17:10 | 25.83900 | 62.89417 | 33834 ft | 452 kts | 226° |
| 2026-05-08 17:10 | 25.79440 | 62.84495 | 33827 ft | 453 kts | 226° |
| 2026-05-08 17:11 | 25.74972 | 62.79574 | 33836 ft | 452 kts | 226° |
| 2026-05-08 17:11 | 25.70506 | 62.74666 | 33832 ft | 452 kts | 226° |
| 2026-05-08 17:12 | 25.66046 | 62.69764 | 33831 ft | 451 kts | 226° |
| 2026-05-08 17:12 | 25.61598 | 62.64870 | 33830 ft | 451 kts | 226° |
| 2026-05-08 17:13 | 25.57149 | 62.59973 | 33821 ft | 451 kts | 226° |
| 2026-05-08 17:13 | 25.52690 | 62.55091 | 33822 ft | 451 kts | 226° |
| 2026-05-08 17:14 | 25.48230 | 62.50214 | 33818 ft | 451 kts | 226° |
| 2026-05-08 17:14 | 25.43773 | 62.45337 | 33817 ft | 451 kts | 225° |
| 2026-05-08 17:15 | 25.39341 | 62.40495 | 33816 ft | 451 kts | 225° |
| 2026-05-08 17:15 | 25.34878 | 62.35627 | 33816 ft | 451 kts | 225° |
| 2026-05-08 17:16 | 25.30412 | 62.30765 | 33816 ft | 450 kts | 225° |
| 2026-05-08 17:16 | 25.25955 | 62.25908 | 33802 ft | 451 kts | 225° |
| 2026-05-08 17:17 | 25.21483 | 62.21040 | 33803 ft | 452 kts | 225° |
| 2026-05-08 17:17 | 25.17002 | 62.16176 | 33797 ft | 452 kts | 225° |
| 2026-05-08 17:18 | 25.12521 | 62.11306 | 33799 ft | 452 kts | 225° |
| 2026-05-08 17:18 | 25.08035 | 62.06439 | 33801 ft | 452 kts | 225° |
| 2026-05-08 17:19 | 25.03546 | 62.01577 | 33797 ft | 452 kts | 225° |
| 2026-05-08 17:19 | 24.99056 | 61.96716 | 33797 ft | 452 kts | 225° |
| 2026-05-08 17:20 | 24.94560 | 61.91867 | 33795 ft | 452 kts | 225° |
| 2026-05-08 17:20 | 24.90061 | 61.87022 | 33782 ft | 452 kts | 225° |
| 2026-05-08 17:21 | 24.85557 | 61.82167 | 33781 ft | 453 kts | 225° |
| 2026-05-08 17:21 | 24.81052 | 61.77311 | 33782 ft | 453 kts | 225° |
| 2026-05-08 17:22 | 24.76547 | 61.72461 | 33783 ft | 454 kts | 225° |
| 2026-05-08 17:22 | 24.72033 | 61.67605 | 33784 ft | 454 kts | 225° |
| 2026-05-08 17:23 | 24.67511 | 61.62760 | 33785 ft | 454 kts | 224° |
| 2026-05-08 17:23 | 24.62988 | 61.57916 | 33785 ft | 454 kts | 224° |
| 2026-05-08 17:24 | 24.58470 | 61.53070 | 33784 ft | 454 kts | 224° |
| 2026-05-08 17:24 | 24.53950 | 61.48227 | 33775 ft | 454 kts | 224° |
| 2026-05-08 17:25 | 24.49424 | 61.43390 | 33775 ft | 454 kts | 224° |
| 2026-05-08 17:25 | 24.44902 | 61.38563 | 33774 ft | 454 kts | 224° |
| 2026-05-08 17:26 | 24.40880 | 61.33263 | 33781 ft | 453 kts | 240° |
| 2026-05-08 17:26 | 24.38669 | 61.26878 | 33780 ft | 453 kts | 257° |
| 2026-05-08 17:27 | 24.37288 | 61.20141 | 33781 ft | 453 kts | 256° |
| 2026-05-08 17:27 | 24.35872 | 61.13408 | 33781 ft | 453 kts | 256° |
| 2026-05-08 17:28 | 24.34457 | 61.06671 | 33782 ft | 453 kts | 256° |
| 2026-05-08 17:28 | 24.33047 | 60.99935 | 33783 ft | 453 kts | 256° |
| 2026-05-08 17:29 | 24.31633 | 60.93201 | 33784 ft | 453 kts | 256° |
| 2026-05-08 17:29 | 24.30222 | 60.86469 | 33783 ft | 453 kts | 256° |
| 2026-05-08 17:30 | 24.28806 | 60.79747 | 33788 ft | 453 kts | 256° |
| 2026-05-08 17:30 | 24.27386 | 60.73023 | 33790 ft | 453 kts | 256° |
| 2026-05-08 17:31 | 24.26017 | 60.66521 | 33790 ft | 452 kts | 256° |
| 2026-05-08 17:31 | 24.24603 | 60.59827 | 33795 ft | 452 kts | 256° |
| 2026-05-08 17:32 | 24.23182 | 60.53172 | 33790 ft | 451 kts | 256° |
| 2026-05-08 17:32 | 24.21748 | 60.46477 | 33788 ft | 451 kts | 256° |
| 2026-05-08 17:33 | 24.20321 | 60.39788 | 33798 ft | 451 kts | 256° |
| 2026-05-08 17:33 | 24.18894 | 60.33107 | 33796 ft | 450 kts | 256° |
| 2026-05-08 17:34 | 24.17458 | 60.26434 | 33791 ft | 450 kts | 256° |
| 2026-05-08 17:34 | 24.16023 | 60.19773 | 33790 ft | 450 kts | 256° |
| 2026-05-08 17:35 | 24.14589 | 60.13108 | 33790 ft | 450 kts | 256° |
| 2026-05-08 17:35 | 24.13154 | 60.06448 | 33788 ft | 449 kts | 256° |
| 2026-05-08 17:36 | 24.11714 | 59.99794 | 33790 ft | 449 kts | 256° |
| 2026-05-08 17:36 | 24.10270 | 59.93146 | 33788 ft | 449 kts | 256° |
| 2026-05-08 17:37 | 24.08825 | 59.86501 | 33789 ft | 449 kts | 255° |
| 2026-05-08 17:37 | 24.07377 | 59.79858 | 33791 ft | 449 kts | 255° |
| 2026-05-08 17:38 | 24.05919 | 59.73222 | 33786 ft | 448 kts | 255° |
| 2026-05-08 17:38 | 24.04464 | 59.66587 | 33785 ft | 448 kts | 255° |
| 2026-05-08 17:39 | 24.03018 | 59.60005 | 33790 ft | 448 kts | 255° |
| 2026-05-08 17:39 | 24.01567 | 59.53373 | 33789 ft | 448 kts | 255° |
| 2026-05-08 17:40 | 24.00116 | 59.46746 | 33786 ft | 448 kts | 255° |
| 2026-05-08 17:40 | 23.98655 | 59.40119 | 33785 ft | 448 kts | 255° |
| 2026-05-08 17:41 | 23.97192 | 59.33508 | 33787 ft | 448 kts | 255° |
| 2026-05-08 17:41 | 23.95729 | 59.26890 | 33787 ft | 448 kts | 255° |
| 2026-05-08 17:42 | 23.94257 | 59.20271 | 33784 ft | 448 kts | 255° |
| 2026-05-08 17:42 | 23.92782 | 59.13665 | 33780 ft | 448 kts | 255° |
| 2026-05-08 17:43 | 23.91433 | 59.07024 | 33779 ft | 448 kts | 257° |
| 2026-05-08 17:43 | 23.90229 | 59.00344 | 33770 ft | 448 kts | 258° |
| 2026-05-08 17:44 | 23.89015 | 58.93667 | 33773 ft | 448 kts | 257° |
| 2026-05-08 17:44 | 23.87752 | 58.87002 | 33773 ft | 448 kts | 257° |
| 2026-05-08 17:45 | 23.86479 | 58.80340 | 33767 ft | 448 kts | 257° |
| 2026-05-08 17:45 | 23.85201 | 58.73680 | 33767 ft | 448 kts | 257° |
| 2026-05-08 17:46 | 23.83929 | 58.67025 | 33758 ft | 448 kts | 257° |
| 2026-05-08 17:46 | 23.82650 | 58.60370 | 33769 ft | 448 kts | 257° |
| 2026-05-08 17:47 | 23.81370 | 58.53714 | 33766 ft | 448 kts | 257° |
| 2026-05-08 17:47 | 23.80302 | 58.48181 | 33765 ft | 448 kts | 257° |
| 2026-05-08 17:48 | 23.78811 | 58.40453 | 33766 ft | 448 kts | 257° |
| 2026-05-08 17:48 | 23.77523 | 58.33806 | 33765 ft | 447 kts | 257° |
| 2026-05-08 17:49 | 23.76235 | 58.27163 | 33764 ft | 447 kts | 257° |
| 2026-05-08 17:49 | 23.74943 | 58.20531 | 33763 ft | 447 kts | 257° |
| 2026-05-08 17:50 | 23.73648 | 58.13895 | 33769 ft | 447 kts | 257° |
| 2026-05-08 17:50 | 23.72355 | 58.07258 | 33773 ft | 447 kts | 257° |
| 2026-05-08 17:51 | 23.71057 | 58.00631 | 33791 ft | 447 kts | 257° |
| 2026-05-08 17:51 | 23.69929 | 57.93978 | 33786 ft | 448 kts | 265° |
| 2026-05-08 17:52 | 23.70529 | 57.87224 | 33806 ft | 451 kts | 282° |
| 2026-05-08 17:53 | 23.72723 | 57.77243 | 33806 ft | 451 kts | 281° |
| 2026-05-08 17:53 | 23.74170 | 57.70589 | 33803 ft | 451 kts | 281° |
| 2026-05-08 17:54 | 23.75618 | 57.63934 | 33813 ft | 450 kts | 281° |
| 2026-05-08 17:54 | 23.77057 | 57.57288 | 33820 ft | 450 kts | 281° |
| 2026-05-08 17:55 | 23.78483 | 57.50691 | 33813 ft | 449 kts | 281° |
| 2026-05-08 17:55 | 23.79919 | 57.44059 | 33807 ft | 449 kts | 281° |
| 2026-05-08 17:56 | 23.81353 | 57.37430 | 33822 ft | 448 kts | 281° |
| 2026-05-08 17:56 | 23.82787 | 57.30758 | 33821 ft | 448 kts | 281° |
| 2026-05-08 17:57 | 23.84206 | 57.24136 | 33816 ft | 448 kts | 281° |
| 2026-05-08 17:57 | 23.85609 | 57.17553 | 33815 ft | 448 kts | 281° |
| 2026-05-08 17:58 | 23.87024 | 57.10930 | 33834 ft | 448 kts | 281° |
| 2026-05-08 17:58 | 23.88436 | 57.04319 | 33847 ft | 447 kts | 281° |
| 2026-05-08 17:59 | 23.89842 | 56.97704 | 33828 ft | 447 kts | 281° |
| 2026-05-08 17:59 | 23.91254 | 56.91094 | 33842 ft | 446 kts | 281° |
| 2026-05-08 18:00 | 23.92662 | 56.84486 | 33840 ft | 446 kts | 281° |
| 2026-05-08 18:00 | 23.94748 | 56.74581 | 33848 ft | 445 kts | 280° |
| 2026-05-08 18:01 | 23.96135 | 56.67981 | 33867 ft | 445 kts | 281° |
| 2026-05-08 18:01 | 23.97521 | 56.61391 | 33886 ft | 445 kts | 281° |
| 2026-05-08 18:02 | 23.98675 | 56.55907 | 33687 ft | 446 kts | 280° |
| 2026-05-08 18:02 | 23.99600 | 56.51492 | 33357 ft | 445 kts | 280° |
| 2026-05-08 18:02 | 24.00292 | 56.48183 | 32675 ft | 448 kts | 280° |
| 2026-05-08 18:03 | 24.00988 | 56.44849 | 31817 ft | 453 kts | 280° |
| 2026-05-08 18:03 | 24.01692 | 56.41474 | 30959 ft | 457 kts | 281° |
| 2026-05-08 18:03 | 24.02403 | 56.38064 | 30034 ft | 463 kts | 281° |
| 2026-05-08 18:03 | 24.03112 | 56.34655 | 29003 ft | 468 kts | 281° |
| 2026-05-08 18:04 | 24.03829 | 56.31204 | 28452 ft | 462 kts | 281° |
| 2026-05-08 18:04 | 24.04572 | 56.27797 | 27825 ft | 459 kts | 285° |
| 2026-05-08 18:04 | 24.05644 | 56.24517 | 27211 ft | 457 kts | 289° |
| 2026-05-08 18:04 | 24.06785 | 56.21287 | 26582 ft | 453 kts | 289° |
| 2026-05-08 18:05 | 24.07916 | 56.18077 | 25969 ft | 450 kts | 289° |
| 2026-05-08 18:05 | 24.09036 | 56.14892 | 25371 ft | 448 kts | 289° |
| 2026-05-08 18:05 | 24.10150 | 56.11721 | 24761 ft | 445 kts | 289° |
| 2026-05-08 18:05 | 24.11258 | 56.08567 | 24164 ft | 443 kts | 289° |
| 2026-05-08 18:06 | 24.12359 | 56.05428 | 23577 ft | 441 kts | 289° |
| 2026-05-08 18:06 | 24.13456 | 56.02297 | 22914 ft | 439 kts | 289° |
| 2026-05-08 18:06 | 24.14541 | 55.99195 | 22342 ft | 434 kts | 289° |
| 2026-05-08 18:06 | 24.15613 | 55.96124 | 21778 ft | 429 kts | 289° |
| 2026-05-08 18:07 | 24.16673 | 55.93089 | 21243 ft | 425 kts | 289° |
| 2026-05-08 18:07 | 24.17724 | 55.90077 | 20713 ft | 422 kts | 289° |
| 2026-05-08 18:07 | 24.18769 | 55.87084 | 20202 ft | 419 kts | 289° |
| 2026-05-08 18:07 | 24.19805 | 55.84116 | 19700 ft | 416 kts | 289° |
| 2026-05-08 18:08 | 24.20834 | 55.81162 | 19208 ft | 414 kts | 290° |
| 2026-05-08 18:08 | 24.21719 | 55.78185 | 18721 ft | 410 kts | 283° |
| 2026-05-08 18:08 | 24.22447 | 55.75169 | 18175 ft | 409 kts | 282° |
| 2026-05-08 18:08 | 24.22743 | 55.72064 | 17308 ft | 409 kts | 265° |
| 2026-05-08 18:09 | 24.22555 | 55.69030 | 16489 ft | 392 kts | 264° |
| 2026-05-08 18:09 | 24.22440 | 55.67074 | 15760 ft | 387 kts | 265° |
| 2026-05-08 18:09 | 24.22274 | 55.64147 | 14685 ft | 384 kts | 265° |
| 2026-05-08 18:09 | 24.22115 | 55.61245 | 13870 ft | 379 kts | 265° |
| 2026-05-08 18:10 | 24.21959 | 55.58384 | 12901 ft | 374 kts | 266° |
| 2026-05-08 18:10 | 24.21800 | 55.55562 | 11996 ft | 368 kts | 265° |
| 2026-05-08 18:10 | 24.21638 | 55.52767 | 11139 ft | 359 kts | 266° |
| 2026-05-08 18:10 | 24.21477 | 55.50055 | 10457 ft | 360 kts | 265° |
| 2026-05-08 18:11 | 24.21313 | 55.47342 | 10325 ft | 345 kts | 265° |
| 2026-05-08 18:11 | 24.21159 | 55.44808 | 10206 ft | 331 kts | 265° |
| 2026-05-08 18:11 | 24.21010 | 55.42345 | 10087 ft | 318 kts | 265° |
| 2026-05-08 18:11 | 24.20866 | 55.39972 | 9969 ft | 306 kts | 265° |
| 2026-05-08 18:12 | 24.20728 | 55.37695 | 9842 ft | 295 kts | 265° |
| 2026-05-08 18:12 | 24.20593 | 55.35461 | 9662 ft | 294 kts | 265° |
| 2026-05-08 18:12 | 24.20458 | 55.33239 | 9301 ft | 292 kts | 266° |
| 2026-05-08 18:12 | 24.20323 | 55.31022 | 8900 ft | 291 kts | 266° |
| 2026-05-08 18:13 | 24.20189 | 55.28808 | 8518 ft | 291 kts | 266° |
| 2026-05-08 18:13 | 24.20055 | 55.26602 | 8145 ft | 290 kts | 266° |
| 2026-05-08 18:13 | 24.19920 | 55.24402 | 7760 ft | 289 kts | 267° |
| 2026-05-08 18:13 | 24.19783 | 55.22213 | 7390 ft | 288 kts | 267° |
| 2026-05-08 18:14 | 24.19646 | 55.20038 | 7013 ft | 288 kts | 267° |
| 2026-05-08 18:14 | 24.19511 | 55.17852 | 6627 ft | 288 kts | 267° |
| 2026-05-08 18:14 | 24.19493 | 55.15679 | 6342 ft | 282 kts | 279° |
| 2026-05-08 18:14 | 24.19799 | 55.13561 | 5953 ft | 282 kts | 280° |
| 2026-05-08 18:15 | 24.20112 | 55.11441 | 5579 ft | 281 kts | 280° |
| 2026-05-08 18:15 | 24.20422 | 55.09344 | 5273 ft | 278 kts | 281° |
| 2026-05-08 18:15 | 24.20730 | 55.07257 | 4919 ft | 277 kts | 280° |
| 2026-05-08 18:15 | 24.21039 | 55.05167 | 4505 ft | 279 kts | 281° |
| 2026-05-08 18:16 | 24.21344 | 55.03089 | 4274 ft | 272 kts | 281° |
| 2026-05-08 18:16 | 24.21638 | 55.01077 | 4125 ft | 262 kts | 281° |
| 2026-05-08 18:16 | 24.21930 | 54.99148 | 4016 ft | 252 kts | 285° |
| 2026-05-08 18:16 | 24.22587 | 54.97428 | 3860 ft | 241 kts | 306° |
| 2026-05-08 18:17 | 24.23597 | 54.95982 | 3604 ft | 237 kts | 309° |
| 2026-05-08 18:17 | 24.24591 | 54.94604 | 3356 ft | 231 kts | 309° |
| 2026-05-08 18:17 | 24.25576 | 54.93230 | 3128 ft | 227 kts | 309° |
| 2026-05-08 18:17 | 24.26538 | 54.91882 | 2891 ft | 222 kts | 308° |
| 2026-05-08 18:18 | 24.27476 | 54.90567 | 2686 ft | 215 kts | 309° |
| 2026-05-08 18:18 | 24.28387 | 54.89291 | 2466 ft | 210 kts | 308° |
| 2026-05-08 18:18 | 24.29282 | 54.88037 | 2332 ft | 208 kts | 308° |
| 2026-05-08 18:18 | 24.30171 | 54.86791 | 2209 ft | 207 kts | 308° |
| 2026-05-08 18:19 | 24.31057 | 54.85548 | 2104 ft | 206 kts | 308° |
| 2026-05-08 18:19 | 24.31908 | 54.84353 | 2024 ft | 189 kts | 309° |
| 2026-05-08 18:19 | 24.32679 | 54.83270 | 2009 ft | 174 kts | 309° |
| 2026-05-08 18:19 | 24.33413 | 54.82241 | 2006 ft | 169 kts | 309° |
| 2026-05-08 18:20 | 24.34132 | 54.81232 | 2009 ft | 167 kts | 308° |
| 2026-05-08 18:20 | 24.34846 | 54.80230 | 2006 ft | 166 kts | 308° |
| 2026-05-08 18:20 | 24.35555 | 54.79233 | 2008 ft | 166 kts | 308° |
| 2026-05-08 18:20 | 24.36269 | 54.78231 | 2006 ft | 166 kts | 308° |
| 2026-05-08 18:21 | 24.36974 | 54.77242 | 2006 ft | 165 kts | 308° |
| 2026-05-08 18:21 | 24.37680 | 54.76250 | 1960 ft | 166 kts | 308° |
| 2026-05-08 18:21 | 24.38388 | 54.75254 | 1811 ft | 165 kts | 308° |
| 2026-05-08 18:21 | 24.39088 | 54.74269 | 1621 ft | 163 kts | 309° |
| 2026-05-08 18:22 | 24.39757 | 54.73330 | 1453 ft | 150 kts | 308° |
| 2026-05-08 18:22 | 24.40386 | 54.72445 | 1260 ft | 145 kts | 308° |
| 2026-05-08 18:22 | 24.41003 | 54.71576 | 1067 ft | 143 kts | 309° |
| 2026-05-08 18:22 | 24.41612 | 54.70721 | 896 ft | 142 kts | 308° |
| 2026-05-08 18:23 | 24.42208 | 54.69882 | 734 ft | 141 kts | 306° |
| 2026-05-08 18:23 | 24.42817 | 54.69024 | 571 ft | 141 kts | 306° |
| 2026-05-08 18:23 | 24.43419 | 54.68179 | 402 ft | 144 kts | 306° |
| 2026-05-08 18:23 | 24.44027 | 54.67322 | 211 ft | 142 kts | 307° |
| 2026-05-08 18:24 | 24.44625 | 54.66485 | 80 ft | 128 kts | 307° |
| 2026-05-08 18:24 | 24.45068 | 54.65849 | 74 ft | 80 kts | 309° |
| 2026-05-08 18:24 | 24.45322 | 54.65499 | 72 ft | 42 kts | 311° |
| 2026-05-08 18:24 | 24.45409 | 54.65262 | 74 ft | 32 kts | 278° |
| 2026-05-08 18:25 | 24.45444 | 54.65042 | 74 ft | 20 kts | 283° |
| 2026-05-08 18:25 | 24.45480 | 54.64927 | 71 ft | 13 kts | 246° |
| 2026-05-08 18:25 | 24.45403 | 54.64917 | 73 ft | 13 kts | 140° |
| 2026-05-08 18:25 | 24.45344 | 54.65000 | 69 ft | 14 kts | 126° |
| 2026-05-08 18:26 | 24.45281 | 54.65091 | 65 ft | 15 kts | 128° |
| 2026-05-08 18:26 | 24.45212 | 54.65187 | 73 ft | 17 kts | 129° |
| 2026-05-08 18:26 | 24.45139 | 54.65231 | 71 ft | 12 kts | 200° |
| 2026-05-08 18:26 | 24.45070 | 54.65174 | 65 ft | 13 kts | 218° |
| 2026-05-08 18:27 | 24.44994 | 54.65108 | 71 ft | 15 kts | 218° |
| 2026-05-08 18:27 | 24.44941 | 54.65061 | 69 ft | 13 kts | 219° |
| 2026-05-08 18:27 | 24.44858 | 54.64990 | 69 ft | 12 kts | 216° |
| 2026-05-08 18:27 | 24.44789 | 54.64932 | 70 ft | 13 kts | 224° |
| 2026-05-08 18:28 | 24.44803 | 54.64874 | 76 ft | 9 kts | 354° |
| 2026-05-08 18:28 | 24.44872 | 54.64881 | 73 ft | 8 kts | 353° |
| 2026-05-08 18:28 | 24.44897 | 54.64877 | 68 ft | 3 kts | 353° |
| 2026-05-08 18:28 | 24.44898 | 54.64877 | 69 ft | 0 kts | 353° |
| 2026-05-08 18:30 | 24.44895 | 54.64877 | 68 ft | 0 kts | 353° |